Flight schools

Flying Academy USA

Flying Academy USA

Miami, Florida        Current temp 17 °C

Flying Academy Europa

Flying Academy Europa

Prague & Brno, Czech Republic        Current temp -3 °C


News

archive

Latest blog post

archive

Latest weather

LKKV

LKKV 190700Z 12006KT 6000 SCT002 OVC004 M02/M03 Q1018 R29/790191

LKPR

LKPR 190700Z 15002KT 4800 BR FEW018 M03/M04 Q1020 R24/29//95 R30/35//95 TEMPO BKN015

LKTB

LKTB 190700Z 11011KT 8000 BKN024 M00/M01 Q1024 NOSIG